CheckWX is a tool to help pilots better visualize weather data.  It is not intended as a substitute for an official pre-flight weather briefing.

17:01:26 UTC

KESC METAR
Delta County Airport
Escanaba, Michigan, USA
Current

5 mins ago

KESC 191656Z AUTO 22010KT 10SM OVC006 19/17 A3006 RMK AO2 SLP179 T01890172
Observed
Sep-19 @ 16:56 UTC
Wind
  • 220° at 10 KTS
Visibility
10 SM
Flight Rules
IFR
Cloud Levels
  • Overcast at 600' AGL
Temperature
19°C / 66°F
Dewpoint
17°C / 63°F
Humidity
88%
Altimeter
30.06" Hg
Pressure
1017.92 hPa
Previous

49 mins ago

KESC 191612Z AUTO 21013G20KT 10SM BKN008 18/17 A3006 RMK AO2
Observed
Sep-19 @ 16:12 UTC
Wind
  • 210° at 13 KTS
  • Gusting to 20 KTS
Visibility
10 SM
Flight Rules
IFR
Cloud Levels
  • Broken at 800' AGL
Temperature
18°C / 64°F
Dewpoint
17°C / 63°F
Humidity
94%
Altimeter
30.06" Hg
Pressure
1017.92 hPa
Previous

1 hour ago

KESC 191556Z AUTO 21013G20KT 10SM FEW008 18/17 A3005 RMK AO2 SLP178 P0003 T01830167
Observed
Sep-19 @ 15:56 UTC
Wind
  • 210° at 13 KTS
  • Gusting to 20 KTS
Visibility
10 SM
Flight Rules
VFR
Cloud Levels
  • Few at 800' AGL
Temperature
18°C / 64°F
Dewpoint
17°C / 63°F
Humidity
94%
Altimeter
30.05" Hg
Pressure
1017.62 hPa
Current Rain
0.03"